createdAt,value
2023-04-01T00:00:36.148Z,21.04
2023-04-01T00:03:03.146Z,21.04
2023-04-01T00:05:29.698Z,21.03
2023-04-01T00:07:56.119Z,21.04
2023-04-01T00:10:22.507Z,21.04
2023-04-01T00:12:48.956Z,21.03
2023-04-01T00:15:15.579Z,21.03
2023-04-01T00:17:42.066Z,21.04
2023-04-01T00:20:09.146Z,21.02
2023-04-01T00:22:36.015Z,21.05
2023-04-01T00:25:02.530Z,21.03
2023-04-01T00:27:29.093Z,21.04
2023-04-01T00:29:55.529Z,21.03
2023-04-01T00:32:21.958Z,21.04
2023-04-01T00:34:51.236Z,21.03
2023-04-01T00:37:17.642Z,21.03
2023-04-01T00:39:45.333Z,21.01
2023-04-01T00:42:12.296Z,21.02
2023-04-01T00:44:38.703Z,21.03
2023-04-01T00:47:05.300Z,21.03
2023-04-01T00:49:34.188Z,21.02
2023-04-01T00:52:02.666Z,21.03
2023-04-01T00:54:30.555Z,21.03
2023-04-01T00:56:57.271Z,21.02
2023-04-01T00:59:25.788Z,21.02
2023-04-01T01:01:52.456Z,21.02
2023-04-01T01:04:26.381Z,21.02
2023-04-01T01:07:13.549Z,21.03
2023-04-01T01:09:46.116Z,21.02
2023-04-01T01:12:19.964Z,21.03
2023-04-01T01:14:52.225Z,21.03
2023-04-01T01:17:18.933Z,21.03
2023-04-01T01:20:15.653Z,21.02
2023-04-01T01:22:49.287Z,21.02
2023-04-01T01:25:34.965Z,21.02
2023-04-01T01:28:15.534Z,21.01
2023-04-01T01:30:41.932Z,21.03
2023-04-01T01:33:08.462Z,21.01
2023-04-01T01:35:37.865Z,21.02
2023-04-01T01:38:07.073Z,21.02
2023-04-01T01:40:34.774Z,21.02
2023-04-01T01:43:04.952Z,21.02
2023-04-01T01:45:32.633Z,21.03
2023-04-01T01:47:59.912Z,21.02
2023-04-01T01:50:27.292Z,21.03
2023-04-01T01:53:01.685Z,21.02
2023-04-01T01:55:30.223Z,21.03
2023-04-01T01:57:59.578Z,21.03
2023-04-01T02:00:27.307Z,21.03
2023-04-01T02:02:54.757Z,21.01
2023-04-01T02:05:28.675Z,21.03
2023-04-01T02:08:16.636Z,21.02
2023-04-01T02:10:46.444Z,21.02
2023-04-01T02:13:18.739Z,21.02
2023-04-01T02:15:48.465Z,21.01
2023-04-01T02:18:16.534Z,21.01
2023-04-01T02:20:43.193Z,21.01
2023-04-01T02:23:10.660Z,21.02
2023-04-01T02:25:38.485Z,21.01
2023-04-01T02:28:07.082Z,21.02
2023-04-01T02:30:35.614Z,21.03
2023-04-01T02:33:02.504Z,21.02
2023-04-01T02:35:29.032Z,21.02
2023-04-01T02:37:56.165Z,21.02
2023-04-01T02:40:23.065Z,21.03
2023-04-01T02:42:49.539Z,21.03
2023-04-01T02:45:16.167Z,21.02
2023-04-01T02:47:42.703Z,21.04
2023-04-01T02:50:09.752Z,21.04
2023-04-01T02:52:36.588Z,21.03
2023-04-01T02:55:03.831Z,21.04
2023-04-01T02:57:30.651Z,21.02
2023-04-01T02:59:57.210Z,21.03
2023-04-01T03:02:23.719Z,21.03
2023-04-01T03:04:50.298Z,21.03
2023-04-01T03:07:17.168Z,21.04
2023-04-01T03:09:43.586Z,21.03
2023-04-01T03:12:10.366Z,21.04
2023-04-01T03:14:36.844Z,21.03
2023-04-01T03:17:03.326Z,21.04
2023-04-01T03:19:29.920Z,21.04
2023-04-01T03:21:56.317Z,21.04
2023-04-01T03:24:22.806Z,21.04
2023-04-01T03:26:49.531Z,21.05
2023-04-01T03:29:16.933Z,21.04
2023-04-01T03:31:43.490Z,21.05
2023-04-01T03:34:10.116Z,21.04
2023-04-01T03:36:36.642Z,21.04
2023-04-01T03:39:04.667Z,21.05
2023-04-01T03:41:31.791Z,21.04
2023-04-01T03:43:58.336Z,21.04
2023-04-01T03:46:25.191Z,21.05
2023-04-01T03:48:51.704Z,21.04
2023-04-01T03:51:18.211Z,21.05
2023-04-01T03:53:44.684Z,21.05
2023-04-01T03:56:11.218Z,21.05
2023-04-01T03:58:37.628Z,21.05
2023-04-01T04:01:04.140Z,21.06
2023-04-01T04:03:31.044Z,21.05
2023-04-01T04:05:57.764Z,21.05
2023-04-01T04:08:24.166Z,21.05
2023-04-01T04:10:55.758Z,21.05
2023-04-01T04:13:22.277Z,21.06
2023-04-01T04:15:48.833Z,21.05
2023-04-01T04:18:15.452Z,21.05
2023-04-01T04:20:46.662Z,21.06
2023-04-01T04:23:13.112Z,21.05
2023-04-01T04:25:39.530Z,21.05
2023-04-01T04:28:06.138Z,21.06
2023-04-01T04:30:32.582Z,21.06
2023-04-01T04:32:58.999Z,21.06
2023-04-01T04:35:25.474Z,21.06
2023-04-01T04:37:51.854Z,21.06
2023-04-01T04:40:18.321Z,21.06
2023-04-01T04:42:44.731Z,21.05
2023-04-01T04:45:11.826Z,21.06
2023-04-01T04:47:38.260Z,21.06
2023-04-01T04:50:05.018Z,21.03
2023-04-01T04:52:31.382Z,21.07
2023-04-01T04:54:57.756Z,21.06
2023-04-01T04:57:24.276Z,21.07
2023-04-01T04:59:50.791Z,21.06
2023-04-01T05:02:17.169Z,21.06
2023-04-01T05:04:43.716Z,21.06
2023-04-01T05:07:10.396Z,21.07
2023-04-01T05:09:36.787Z,21.07
2023-04-01T05:12:03.454Z,21.07
2023-04-01T05:14:29.853Z,21.07
2023-04-01T05:16:56.347Z,21.06
2023-04-01T05:19:22.789Z,21.07
2023-04-01T05:21:49.258Z,21.06
2023-04-01T05:24:15.747Z,21.06
2023-04-01T05:26:42.225Z,21.07
2023-04-01T05:29:08.725Z,21.07
2023-04-01T05:31:35.157Z,21.06
2023-04-01T05:34:01.581Z,21.06
2023-04-01T05:36:27.991Z,21.07
2023-04-01T05:38:57.476Z,21.07
2023-04-01T05:41:24.019Z,21.08
2023-04-01T05:43:50.922Z,21.07
2023-04-01T05:46:17.516Z,21.08
2023-04-01T05:48:43.985Z,21.08
2023-04-01T05:51:16.585Z,21.08
2023-04-01T05:53:43.172Z,21.08
2023-04-01T05:56:10.451Z,21.08
2023-04-01T05:58:37.301Z,21.07
2023-04-01T06:01:10.263Z,21.09
2023-04-01T06:03:39.342Z,21.09
2023-04-01T06:06:11.139Z,21.08
2023-04-01T06:08:37.590Z,21.09
2023-04-01T06:11:22.486Z,21.08
2023-04-01T06:13:48.859Z,21.07
2023-04-01T06:16:30.714Z,21.09
2023-04-01T06:18:57.126Z,21.08
2023-04-01T06:21:42.298Z,21.08
2023-04-01T06:24:14.241Z,21.09
2023-04-01T06:26:50.099Z,21.09
2023-04-01T06:29:35.313Z,21.09
2023-04-01T06:32:19.471Z,21.10
2023-04-01T06:35:01.176Z,21.11
2023-04-01T06:37:27.628Z,21.11
2023-04-01T06:40:04.222Z,21.12
2023-04-01T06:42:31.516Z,21.12
2023-04-01T06:45:00.753Z,21.12
2023-04-01T06:47:37.364Z,21.13
2023-04-01T06:50:21.508Z,21.13
2023-04-01T06:52:47.891Z,21.13
2023-04-01T06:55:26.428Z,21.14
2023-04-01T06:57:56.258Z,21.14
2023-04-01T07:00:22.732Z,21.14
2023-04-01T07:02:54.689Z,21.16
2023-04-01T07:05:21.424Z,21.16
2023-04-01T07:07:56.850Z,21.17
2023-04-01T07:10:35.837Z,21.17
2023-04-01T07:13:05.897Z,21.17
2023-04-01T07:15:39.459Z,21.16
2023-04-01T07:18:17.178Z,21.17
2023-04-01T07:20:43.866Z,21.17
2023-04-01T07:23:18.063Z,21.17
2023-04-01T07:25:49.041Z,21.18
2023-04-01T07:28:19.573Z,21.17
2023-04-01T07:30:45.989Z,21.18
2023-04-01T07:33:25.823Z,21.18
2023-04-01T07:35:52.309Z,21.17
2023-04-01T07:38:29.727Z,21.19
2023-04-01T07:40:59.132Z,21.19
2023-04-01T07:43:38.498Z,21.19
2023-04-01T07:46:16.930Z,21.19
2023-04-01T07:48:49.396Z,21.18
2023-04-01T07:51:23.733Z,21.20
2023-04-01T07:53:54.790Z,21.20
2023-04-01T07:56:27.958Z,21.19
2023-04-01T07:58:54.390Z,21.19
2023-04-01T08:01:39.522Z,21.20
2023-04-01T08:04:06.119Z,21.19
2023-04-01T08:06:38.236Z,21.20
2023-04-01T08:09:10.594Z,21.20
2023-04-01T08:11:52.174Z,21.20
2023-04-01T08:14:23.613Z,21.20
2023-04-01T08:17:01.646Z,21.21
2023-04-01T08:19:46.513Z,21.21
2023-04-01T08:22:18.820Z,21.21
2023-04-01T08:24:48.029Z,21.21
2023-04-01T08:27:31.965Z,21.21
2023-04-01T08:30:00.967Z,21.21
2023-04-01T08:32:33.676Z,21.21
2023-04-01T08:35:18.551Z,21.22
2023-04-01T08:37:46.344Z,21.22
2023-04-01T08:40:26.430Z,21.22
2023-04-01T08:42:52.825Z,21.22
2023-04-01T08:45:54.941Z,21.22
2023-04-01T08:48:33.294Z,21.22
2023-04-01T08:51:02.850Z,21.22
2023-04-01T08:53:36.420Z,21.22
2023-04-01T08:56:02.860Z,21.23
2023-04-01T08:58:58.729Z,21.22
2023-04-01T09:01:43.790Z,21.23
2023-04-01T09:04:29.066Z,21.23
2023-04-01T09:07:12.226Z,21.23
2023-04-01T09:09:57.321Z,21.22
2023-04-01T09:12:32.860Z,21.22
2023-04-01T09:14:59.326Z,21.23
2023-04-01T09:17:44.624Z,21.23
2023-04-01T09:20:30.168Z,21.24
2023-04-01T09:23:12.312Z,21.24
2023-04-01T09:25:44.619Z,21.24
2023-04-01T09:28:14.128Z,21.25
2023-04-01T09:30:43.431Z,21.26
2023-04-01T09:33:12.792Z,21.25
2023-04-01T09:35:57.993Z,21.25
2023-04-01T09:38:24.470Z,21.26
2023-04-01T09:40:59.311Z,21.26
2023-04-01T09:43:28.846Z,21.28
2023-04-01T09:45:58.667Z,21.26
2023-04-01T09:48:40.418Z,21.27
2023-04-01T09:51:23.718Z,21.27
2023-04-01T09:54:09.312Z,21.27
2023-04-01T09:56:35.817Z,21.26
2023-04-01T09:59:20.825Z,21.27
2023-04-01T10:02:05.889Z,21.27
2023-04-01T10:04:41.207Z,21.28
2023-04-01T10:07:22.897Z,21.27
2023-04-01T10:10:09.546Z,21.27
2023-04-01T10:12:36.634Z,21.29
2023-04-01T10:15:21.554Z,21.28
2023-04-01T10:18:06.785Z,21.30
2023-04-01T10:20:42.450Z,21.28
2023-04-01T10:23:27.606Z,21.28
2023-04-01T10:26:12.827Z,21.29
2023-04-01T10:28:58.192Z,21.30
2023-04-01T10:31:43.212Z,21.30
2023-04-01T10:34:28.298Z,21.29
2023-04-01T10:36:55.288Z,21.29
2023-04-01T10:39:22.457Z,21.29
2023-04-01T10:41:48.942Z,21.30
2023-04-01T10:44:27.345Z,21.31
2023-04-01T10:46:53.719Z,21.31
2023-04-01T10:49:32.336Z,21.30
2023-04-01T10:52:10.886Z,21.30
2023-04-01T10:54:37.285Z,21.30
2023-04-01T10:57:13.221Z,21.31
2023-04-01T10:59:45.621Z,21.32
2023-04-01T11:02:18.148Z,21.32
2023-04-01T11:05:03.067Z,21.31
2023-04-01T11:07:38.727Z,21.31
2023-04-01T11:10:23.952Z,21.31
2023-04-01T11:13:09.161Z,21.32
2023-04-01T11:15:49.735Z,21.31
2023-04-01T11:18:30.714Z,21.31
2023-04-01T11:21:26.914Z,21.32
2023-04-01T11:24:05.161Z,21.32
2023-04-01T11:26:32.223Z,21.31
2023-04-01T11:29:05.683Z,21.33
2023-04-01T11:31:51.027Z,21.32
2023-04-01T11:34:36.134Z,21.32
2023-04-01T11:37:08.513Z,21.31
2023-04-01T11:39:42.468Z,21.31
2023-04-01T11:42:19.189Z,21.32
2023-04-01T11:45:04.516Z,21.32
2023-04-01T11:47:40.242Z,21.32
2023-04-01T11:50:21.189Z,21.31
2023-04-01T11:53:06.237Z,21.32
2023-04-01T11:56:05.293Z,21.31
2023-04-01T11:58:50.341Z,21.32
2023-04-01T12:01:35.943Z,21.31
2023-04-01T12:04:20.518Z,21.31
2023-04-01T12:06:53.294Z,21.32
2023-04-01T12:09:25.936Z,21.31
2023-04-01T12:12:13.990Z,21.31
2023-04-01T12:14:46.449Z,21.32
2023-04-01T12:17:22.056Z,21.31
2023-04-01T12:19:54.520Z,21.32
2023-04-01T12:22:20.921Z,21.32
2023-04-01T12:24:53.372Z,21.33
2023-04-01T12:27:19.694Z,21.32
2023-04-01T12:29:49.273Z,21.32
2023-04-01T12:32:15.780Z,21.32
2023-04-01T12:34:48.533Z,21.32
2023-04-01T12:37:17.980Z,21.32
2023-04-01T12:40:03.526Z,21.32
2023-04-01T12:42:30.049Z,21.32
2023-04-01T12:45:15.275Z,21.32
2023-04-01T12:47:50.935Z,21.32
2023-04-01T12:50:35.966Z,21.31
2023-04-01T12:53:08.506Z,21.31
2023-04-01T12:55:42.150Z,21.31
2023-04-01T12:58:08.501Z,21.31
2023-04-01T13:00:34.892Z,21.30
2023-04-01T13:03:04.294Z,21.31
2023-04-01T13:05:49.474Z,21.31
2023-04-01T13:08:17.109Z,21.30
2023-04-01T13:10:49.374Z,21.31
2023-04-01T13:13:21.988Z,21.32
2023-04-01T13:15:51.445Z,21.28
2023-04-01T13:18:22.123Z,21.32
2023-04-01T13:21:00.869Z,21.31
2023-04-01T13:23:54.563Z,21.31
2023-04-01T13:26:21.665Z,21.31
2023-04-01T13:29:03.294Z,21.30
2023-04-01T13:31:35.980Z,21.30
2023-04-01T13:34:11.265Z,21.30
2023-04-01T13:36:37.663Z,21.30
2023-04-01T13:39:24.147Z,21.31
2023-04-01T13:41:50.886Z,21.31
2023-04-01T13:44:21.685Z,21.31
2023-04-01T13:46:51.377Z,21.30
2023-04-01T13:49:36.515Z,21.31
2023-04-01T13:52:06.124Z,21.31
2023-04-01T13:54:55.365Z,21.31
2023-04-01T13:57:31.615Z,21.31
2023-04-01T14:00:04.293Z,21.30
2023-04-01T14:02:53.708Z,21.30
2023-04-01T14:05:43.647Z,21.31
2023-04-01T14:08:29.309Z,21.29
2023-04-01T14:11:12.543Z,21.30
2023-04-01T14:13:44.905Z,21.31
2023-04-01T14:16:11.359Z,21.31
2023-04-01T14:18:46.954Z,21.30
2023-04-01T14:21:28.527Z,21.30
2023-04-01T14:24:04.141Z,21.30
2023-04-01T14:26:36.738Z,21.32
2023-04-01T14:29:22.118Z,21.32
2023-04-01T14:31:58.975Z,21.30
2023-04-01T14:34:44.006Z,21.30
2023-04-01T14:37:14.066Z,21.30
2023-04-01T14:40:04.042Z,21.30
2023-04-01T14:42:48.974Z,21.31
2023-04-01T14:45:18.421Z,21.30
2023-04-01T14:47:48.442Z,21.30
2023-04-01T14:50:18.150Z,21.30
2023-04-01T14:52:50.622Z,21.30
2023-04-01T14:55:21.918Z,21.30
2023-04-01T14:58:05.787Z,21.30
2023-04-01T15:00:43.068Z,21.30
2023-04-01T15:03:16.694Z,21.29
2023-04-01T15:05:50.148Z,21.30
2023-04-01T15:08:22.450Z,21.31
2023-04-01T15:10:54.930Z,21.29
2023-04-01T15:13:31.502Z,21.31
2023-04-01T15:16:03.830Z,21.30
2023-04-01T15:18:45.387Z,21.30
2023-04-01T15:21:38.217Z,21.30
2023-04-01T15:24:07.398Z,21.30
2023-04-01T15:26:33.765Z,21.30
2023-04-01T15:29:12.806Z,21.30
2023-04-01T15:31:51.442Z,21.30
2023-04-01T15:34:17.782Z,21.30
2023-04-01T15:36:47.201Z,21.30
2023-04-01T15:39:19.691Z,21.29
2023-04-01T15:41:46.136Z,21.30
2023-04-01T15:44:31.423Z,21.29
2023-04-01T15:46:59.029Z,21.30
2023-04-01T15:49:38.820Z,21.29
2023-04-01T15:52:05.295Z,21.28
2023-04-01T15:54:50.575Z,21.28
2023-04-01T15:57:36.019Z,21.29
2023-04-01T16:00:02.480Z,21.28
2023-04-01T16:02:30.687Z,21.28
2023-04-01T16:04:58.506Z,21.29
2023-04-01T16:07:49.742Z,21.29
2023-04-01T16:10:18.991Z,21.29
2023-04-01T16:12:57.613Z,21.29
2023-04-01T16:15:24.427Z,21.29
2023-04-01T16:17:56.967Z,21.29
2023-04-01T16:20:27.491Z,21.29
2023-04-01T16:22:59.790Z,21.29
2023-04-01T16:25:32.655Z,21.30
2023-04-01T16:28:11.477Z,21.29
2023-04-01T16:30:37.886Z,21.28
2023-04-01T16:33:23.216Z,21.28
2023-04-01T16:35:49.707Z,21.29
2023-04-01T16:38:22.677Z,21.28
2023-04-01T16:40:52.223Z,21.30
2023-04-01T16:43:21.727Z,21.29
2023-04-01T16:45:56.565Z,21.28
2023-04-01T16:48:35.243Z,21.28
2023-04-01T16:51:05.583Z,21.28
2023-04-01T16:53:31.920Z,21.27
2023-04-01T16:56:02.481Z,21.27
2023-04-01T16:58:35.665Z,21.27
2023-04-01T17:01:05.541Z,21.26
2023-04-01T17:03:41.238Z,21.26
2023-04-01T17:06:26.427Z,21.25
2023-04-01T17:08:52.889Z,21.24
2023-04-01T17:11:23.909Z,21.24
2023-04-01T17:13:51.002Z,21.24
2023-04-01T17:16:36.037Z,21.24
2023-04-01T17:19:02.480Z,21.23
2023-04-01T17:21:47.532Z,21.24
2023-04-01T17:24:32.409Z,21.23
2023-04-01T17:27:17.550Z,21.22
2023-04-01T17:30:02.824Z,21.21
2023-04-01T17:32:47.613Z,21.21
2023-04-01T17:35:27.371Z,21.20
2023-04-01T17:38:03.070Z,21.20
2023-04-01T17:40:42.494Z,21.21
2023-04-01T17:43:23.341Z,21.20
2023-04-01T17:45:54.204Z,21.21
2023-04-01T17:48:39.137Z,21.20
2023-04-01T17:51:05.532Z,21.21
2023-04-01T17:53:40.405Z,21.20
2023-04-01T17:56:24.106Z,21.19
2023-04-01T17:59:09.153Z,21.21
2023-04-01T18:01:38.589Z,21.19
2023-04-01T18:04:18.661Z,21.18
2023-04-01T18:07:03.637Z,21.19
2023-04-01T18:09:35.946Z,21.20
2023-04-01T18:12:28.679Z,21.19
2023-04-01T18:15:13.716Z,21.20
2023-04-01T18:17:55.489Z,21.17
2023-04-01T18:20:22.022Z,21.18
2023-04-01T18:23:07.529Z,21.18
2023-04-01T18:25:37.880Z,21.17
2023-04-01T18:28:33.516Z,21.18
2023-04-01T18:31:07.089Z,21.17
2023-04-01T18:33:38.225Z,21.19
2023-04-01T18:36:17.106Z,21.19
2023-04-01T18:39:03.736Z,21.17
2023-04-01T18:41:35.583Z,21.17
2023-04-01T18:44:20.804Z,21.18
2023-04-01T18:46:52.536Z,21.17
2023-04-01T18:49:27.028Z,21.17
2023-04-01T18:52:12.097Z,21.18
2023-04-01T18:54:44.712Z,21.18
2023-04-01T18:57:15.213Z,21.18
2023-04-01T18:59:59.689Z,21.16
2023-04-01T19:02:39.074Z,21.16
2023-04-01T19:05:19.945Z,21.15
2023-04-01T19:07:46.635Z,21.17
2023-04-01T19:10:22.409Z,21.17
2023-04-01T19:12:48.823Z,21.16
2023-04-01T19:15:16.888Z,21.17
2023-04-01T19:18:01.978Z,21.16
2023-04-01T19:20:35.096Z,21.16
2023-04-01T19:23:13.792Z,21.16
2023-04-01T19:25:43.975Z,21.16
2023-04-01T19:28:29.022Z,21.16
2023-04-01T19:30:58.133Z,21.16
2023-04-01T19:33:42.513Z,21.17
2023-04-01T19:36:16.238Z,21.17
2023-04-01T19:39:05.711Z,21.17
2023-04-01T19:41:41.743Z,21.16
2023-04-01T19:44:08.114Z,21.17
2023-04-01T19:46:38.106Z,21.16
2023-04-01T19:49:07.652Z,21.16
2023-04-01T19:51:52.581Z,21.16
2023-04-01T19:54:37.521Z,21.16
2023-04-01T19:57:13.120Z,21.15
2023-04-01T19:59:45.930Z,21.16
2023-04-01T20:02:16.643Z,21.16
2023-04-01T20:04:52.027Z,21.16
2023-04-01T20:07:24.311Z,21.14
2023-04-01T20:09:57.475Z,21.16
2023-04-01T20:12:26.644Z,21.14
2023-04-01T20:14:56.183Z,21.15
2023-04-01T20:17:23.930Z,21.15
2023-04-01T20:20:16.089Z,21.16
2023-04-01T20:22:45.840Z,21.13
2023-04-01T20:25:24.804Z,21.14
2023-04-01T20:27:57.154Z,21.15
2023-04-01T20:30:42.418Z,21.13
2023-04-01T20:33:11.826Z,21.15
2023-04-01T20:35:57.379Z,21.12
2023-04-01T20:38:23.783Z,21.14
2023-04-01T20:41:16.390Z,21.13
2023-04-01T20:44:01.507Z,21.10
2023-04-01T20:46:27.967Z,21.14
2023-04-01T20:49:00.591Z,21.14
2023-04-01T20:51:30.494Z,21.12
2023-04-01T20:53:59.686Z,21.12
2023-04-01T20:56:45.086Z,21.13
2023-04-01T20:59:11.454Z,21.13
2023-04-01T21:01:37.926Z,21.13
2023-04-01T21:04:23.936Z,21.12
2023-04-01T21:06:57.136Z,21.12
2023-04-01T21:09:29.430Z,21.12
2023-04-01T21:11:59.761Z,21.12
2023-04-01T21:14:44.949Z,21.14
2023-04-01T21:17:17.390Z,21.12
2023-04-01T21:19:46.767Z,21.12
2023-04-01T21:22:31.945Z,21.12
2023-04-01T21:25:15.525Z,21.12
2023-04-01T21:27:44.982Z,21.13
2023-04-01T21:30:23.612Z,21.11
2023-04-01T21:33:08.453Z,21.12
2023-04-01T21:35:53.870Z,21.12
2023-04-01T21:38:20.277Z,21.12
2023-04-01T21:40:46.865Z,21.11
2023-04-01T21:43:31.700Z,21.11
2023-04-01T21:46:01.380Z,21.12
2023-04-01T21:48:46.361Z,21.12
2023-04-01T21:51:18.825Z,21.11
2023-04-01T21:54:08.296Z,21.11
2023-04-01T21:56:53.625Z,21.12
2023-04-01T21:59:20.069Z,21.12
2023-04-01T22:01:46.652Z,21.12
2023-04-01T22:04:13.067Z,21.11
2023-04-01T22:06:43.574Z,21.11
2023-04-01T22:09:30.538Z,21.12
2023-04-01T22:12:02.414Z,21.12
2023-04-01T22:14:32.487Z,21.12
2023-04-01T22:17:14.690Z,21.12
2023-04-01T22:20:04.170Z,21.11
2023-04-01T22:22:39.426Z,21.10
2023-04-01T22:25:11.676Z,21.12
2023-04-01T22:28:02.385Z,21.11
2023-04-01T22:30:33.781Z,21.11
2023-04-01T22:33:09.160Z,21.11
2023-04-01T22:35:47.903Z,21.11
2023-04-01T22:38:42.677Z,21.11
2023-04-01T22:41:22.070Z,21.11
2023-04-01T22:43:48.755Z,21.10
2023-04-01T22:46:22.555Z,21.11
2023-04-01T22:48:55.901Z,21.12
2023-04-01T22:51:25.280Z,21.11
2023-04-01T22:53:51.748Z,21.10
2023-04-01T22:56:21.266Z,21.11
2023-04-01T22:58:52.084Z,21.10
2023-04-01T23:01:41.579Z,21.11
2023-04-01T23:04:12.111Z,21.11
2023-04-01T23:06:44.187Z,21.10
2023-04-01T23:09:24.867Z,21.10
2023-04-01T23:12:11.500Z,21.09
2023-04-01T23:14:41.858Z,21.11
2023-04-01T23:17:40.945Z,21.11
2023-04-01T23:20:26.316Z,21.10
2023-04-01T23:23:18.822Z,21.09
2023-04-01T23:26:03.733Z,21.11
2023-04-01T23:28:39.113Z,21.09
2023-04-01T23:31:25.744Z,21.09
2023-04-01T23:33:56.329Z,21.10
2023-04-01T23:36:22.969Z,21.09
2023-04-01T23:38:50.040Z,21.09
2023-04-01T23:41:19.558Z,21.09
2023-04-01T23:43:46.493Z,21.09
2023-04-01T23:46:13.505Z,21.09
2023-04-01T23:48:42.321Z,21.09
2023-04-01T23:51:21.369Z,21.09
2023-04-01T23:53:49.054Z,21.09
2023-04-01T23:56:18.971Z,21.10
2023-04-01T23:58:47.794Z,21.08
